createdAt,value
2022-09-18T00:01:00.608Z,98696.00
2022-09-18T00:03:28.671Z,98698.34
2022-09-18T00:05:55.462Z,98700.50
2022-09-18T00:08:22.310Z,98704.97
2022-09-18T00:10:49.070Z,98716.25
2022-09-18T00:13:16.050Z,98714.09
2022-09-18T00:15:43.684Z,98715.66
2022-09-18T00:18:10.435Z,98716.41
2022-09-18T00:20:38.233Z,98714.56
2022-09-18T00:23:05.020Z,98710.56
2022-09-18T00:25:32.263Z,98714.72
2022-09-18T00:27:59.235Z,98715.03
2022-09-18T00:30:26.069Z,98713.97
2022-09-18T00:32:52.826Z,98702.69
2022-09-18T00:35:19.691Z,98710.09
2022-09-18T00:37:46.583Z,98707.94
2022-09-18T00:40:13.427Z,98715.81
2022-09-18T00:42:40.174Z,98714.28
2022-09-18T00:45:07.225Z,98714.72
2022-09-18T00:47:42.633Z,98715.03
2022-09-18T00:50:18.383Z,98710.88
2022-09-18T00:53:03.332Z,98711.16
2022-09-18T00:55:36.566Z,98712.72
2022-09-18T00:58:04.136Z,98712.72
2022-09-18T01:00:32.335Z,98715.81
2022-09-18T01:03:00.706Z,98731.13
2022-09-18T01:05:55.145Z,98724.00
2022-09-18T01:08:52.507Z,98720.63
2022-09-18T01:11:36.896Z,98724.78
2022-09-18T01:14:28.099Z,98721.84
2022-09-18T01:17:07.188Z,98720.47
2022-09-18T01:20:20.747Z,98716.75
2022-09-18T01:23:13.919Z,98718.59
2022-09-18T01:26:06.267Z,98726.19
2022-09-18T01:28:42.479Z,98721.41
2022-09-18T01:31:17.608Z,98727.59
2022-09-18T01:33:47.427Z,98734.09
2022-09-18T01:36:17.277Z,98732.72
2022-09-18T01:38:54.147Z,98730.53
2022-09-18T01:41:26.561Z,98731.34
2022-09-18T01:44:00.650Z,98733.66
2022-09-18T01:46:28.776Z,98739.41
2022-09-18T01:49:02.619Z,98746.97
2022-09-18T01:51:49.507Z,98740.94
2022-09-18T01:54:23.954Z,98739.84
2022-09-18T01:57:04.919Z,98745.59
2022-09-18T01:59:51.060Z,98754.41
2022-09-18T02:02:24.096Z,98750.69
2022-09-18T02:04:56.358Z,98760.59
2022-09-18T02:07:51.920Z,98753.47
2022-09-18T02:10:22.365Z,98754.25
2022-09-18T02:12:52.025Z,98744.50
2022-09-18T02:15:19.103Z,98756.41
2022-09-18T02:17:57.062Z,98760.75
2022-09-18T02:20:37.092Z,98756.53
2022-09-18T02:23:07.334Z,98755.31
2022-09-18T02:25:45.847Z,98746.97
2022-09-18T02:28:16.270Z,98756.69
2022-09-18T02:30:44.646Z,98759.78
2022-09-18T02:33:29.223Z,98769.22
2022-09-18T02:36:01.954Z,98769.53
2022-09-18T02:39:10.624Z,98770.28
2022-09-18T02:41:53.145Z,98774.00
2022-09-18T02:44:45.204Z,98776.63
2022-09-18T02:47:42.646Z,98796.41
2022-09-18T02:50:46.186Z,98796.88
2022-09-18T02:53:23.732Z,98796.41
2022-09-18T02:56:00.226Z,98795.63
2022-09-18T02:58:42.551Z,98790.97
2022-09-18T03:01:12.937Z,98792.81
2022-09-18T03:03:42.029Z,98801.47
2022-09-18T03:06:11.218Z,98806.56
2022-09-18T03:08:38.947Z,98805.34
2022-09-18T03:11:06.252Z,98800.38
2022-09-18T03:13:32.967Z,98802.53
2022-09-18T03:15:59.808Z,98811.78
2022-09-18T03:18:26.850Z,98801.88
2022-09-18T03:20:56.251Z,98796.16
2022-09-18T03:23:23.079Z,98787.81
2022-09-18T03:25:52.651Z,98784.25
2022-09-18T03:28:19.577Z,98780.84
2022-09-18T03:30:46.698Z,98780.69
2022-09-18T03:33:13.769Z,98776.97
2022-09-18T03:35:43.821Z,98784.84
2022-09-18T03:38:10.712Z,98785.44
2022-09-18T03:40:37.861Z,98784.97
2022-09-18T03:43:05.963Z,98790.22
2022-09-18T03:45:33.035Z,98789.16
2022-09-18T03:48:01.872Z,98799.16
2022-09-18T03:50:29.192Z,98797.63
2022-09-18T03:52:56.687Z,98798.72
2022-09-18T03:55:37.232Z,98799.00
2022-09-18T03:58:23.970Z,98801.94
2022-09-18T04:01:11.220Z,98803.63
2022-09-18T04:03:57.935Z,98798.97
2022-09-18T04:06:43.174Z,98793.22
2022-09-18T04:09:30.003Z,98791.19
2022-09-18T04:11:56.894Z,98791.97
2022-09-18T04:14:27.951Z,98793.81
2022-09-18T04:16:57.173Z,98796.75
2022-09-18T04:19:23.943Z,98787.34
2022-09-18T04:21:50.715Z,98795.50
2022-09-18T04:24:17.556Z,98787.63
2022-09-18T04:26:44.779Z,98793.19
2022-09-18T04:29:13.014Z,98790.56
2022-09-18T04:31:40.094Z,98785.59
2022-09-18T04:34:11.805Z,98784.34
2022-09-18T04:36:38.612Z,98771.69
2022-09-18T04:39:07.070Z,98777.72
2022-09-18T04:41:35.630Z,98783.13
2022-09-18T04:44:04.573Z,98789.66
2022-09-18T04:46:31.619Z,98789.22
2022-09-18T04:49:00.110Z,98795.91
2022-09-18T04:51:28.406Z,98799.31
2022-09-18T04:53:55.268Z,98806.88
2022-09-18T04:56:23.568Z,98817.38
2022-09-18T04:58:52.181Z,98813.50
2022-09-18T05:01:19.086Z,98804.97
2022-09-18T05:03:46.578Z,98812.50
2022-09-18T05:06:25.160Z,98801.47
2022-09-18T05:08:52.788Z,98804.88
2022-09-18T05:11:21.178Z,98817.22
2022-09-18T05:13:48.834Z,98811.47
2022-09-18T05:16:16.261Z,98806.41
2022-09-18T05:18:52.080Z,98809.34
2022-09-18T05:21:20.232Z,98815.06
2022-09-18T05:23:47.143Z,98806.91
2022-09-18T05:26:16.993Z,98813.28
2022-09-18T05:28:43.882Z,98808.03
2022-09-18T05:31:10.666Z,98818.53
2022-09-18T05:33:43.042Z,98821.63
2022-09-18T05:36:11.297Z,98831.81
2022-09-18T05:38:38.424Z,98820.25
2022-09-18T05:41:09.452Z,98828.59
2022-09-18T05:43:36.821Z,98824.91
2022-09-18T05:46:08.165Z,98840.81
2022-09-18T05:48:49.923Z,98849.38
2022-09-18T05:51:17.257Z,98832.53
2022-09-18T05:53:44.194Z,98825.44
2022-09-18T05:56:18.369Z,98830.09
2022-09-18T05:58:45.775Z,98832.88
2022-09-18T06:01:12.487Z,98837.38
2022-09-18T06:04:02.577Z,98826.84
2022-09-18T06:06:37.994Z,98833.06
2022-09-18T06:09:04.836Z,98826.13
2022-09-18T06:11:32.376Z,98833.22
2022-09-18T06:13:59.639Z,98835.38
2022-09-18T06:16:26.567Z,98830.91
2022-09-18T06:18:58.265Z,98834.94
2022-09-18T06:21:25.188Z,98840.69
2022-09-18T06:23:52.181Z,98840.53
2022-09-18T06:26:32.527Z,98838.88
2022-09-18T06:28:59.224Z,98840.13
2022-09-18T06:31:27.585Z,98841.84
2022-09-18T06:34:05.250Z,98849.91
2022-09-18T06:36:32.202Z,98859.50
2022-09-18T06:39:24.943Z,98846.53
2022-09-18T06:41:56.439Z,98858.97
2022-09-18T06:44:43.232Z,98847.56
2022-09-18T06:47:10.209Z,98830.41
2022-09-18T06:49:41.986Z,98845.16
2022-09-18T06:52:09.065Z,98843.88
2022-09-18T06:54:37.493Z,98852.41
2022-09-18T06:57:07.152Z,98855.66
2022-09-18T06:59:33.914Z,98857.84
2022-09-18T07:02:01.585Z,98854.63
2022-09-18T07:04:48.058Z,98871.22
2022-09-18T07:07:16.978Z,98870.78
2022-09-18T07:09:46.796Z,98859.03
2022-09-18T07:12:31.895Z,98850.47
2022-09-18T07:14:58.819Z,98867.69
2022-09-18T07:17:27.007Z,98863.03
2022-09-18T07:19:56.384Z,98861.97
2022-09-18T07:22:32.254Z,98869.06
2022-09-18T07:24:59.046Z,98871.09
2022-09-18T07:27:25.798Z,98865.84
2022-09-18T07:29:53.630Z,98885.78
2022-09-18T07:32:20.369Z,98880.53
2022-09-18T07:34:48.539Z,98884.41
2022-09-18T07:37:22.801Z,98891.38
2022-09-18T07:39:58.481Z,98893.72
2022-09-18T07:42:45.538Z,98887.66
2022-09-18T07:45:13.460Z,98897.25
2022-09-18T07:47:41.390Z,98905.00
2022-09-18T07:50:10.861Z,98905.47
2022-09-18T07:52:37.674Z,98912.44
2022-09-18T07:55:04.834Z,98906.41
2022-09-18T07:57:34.161Z,98906.22
2022-09-18T08:00:26.683Z,98906.19
2022-09-18T08:03:05.303Z,98915.31
2022-09-18T08:06:07.525Z,98916.44
2022-09-18T08:08:35.922Z,98928.66
2022-09-18T08:11:21.664Z,98933.63
2022-09-18T08:14:20.006Z,98931.69
2022-09-18T08:17:10.054Z,98924.56
2022-09-18T08:19:40.560Z,98941.00
2022-09-18T08:22:12.181Z,98929.69
2022-09-18T08:24:44.907Z,98922.56
2022-09-18T08:27:11.762Z,98931.34
2022-09-18T08:29:40.087Z,98939.44
2022-09-18T08:32:10.090Z,98936.34
2022-09-18T08:34:37.859Z,98942.09
2022-09-18T08:37:05.271Z,98951.53
2022-09-18T08:39:50.881Z,98957.28
2022-09-18T08:42:46.435Z,98945.78
2022-09-18T08:45:16.117Z,98958.63
2022-09-18T08:47:50.427Z,98949.34
2022-09-18T08:50:29.350Z,98946.72
2022-09-18T08:53:04.865Z,98956.84
2022-09-18T08:56:00.572Z,98956.84
2022-09-18T08:58:52.111Z,98955.41
2022-09-18T09:01:20.122Z,98950.63
2022-09-18T09:04:06.451Z,98954.78
2022-09-18T09:06:42.552Z,98959.78
2022-09-18T09:09:24.982Z,98962.22
2022-09-18T09:12:03.432Z,98962.91
2022-09-18T09:14:57.975Z,98968.78
2022-09-18T09:17:45.104Z,98972.22
2022-09-18T09:20:52.193Z,98970.34
2022-09-18T09:23:31.415Z,98962.56
2022-09-18T09:26:09.221Z,98959.16
2022-09-18T09:29:16.700Z,98973.25
2022-09-18T09:32:37.704Z,98982.34
2022-09-18T09:35:45.784Z,98974.44
2022-09-18T09:38:54.637Z,98967.91
2022-09-18T09:41:24.477Z,98975.38
2022-09-18T09:43:58.727Z,98977.06
2022-09-18T09:46:54.503Z,98968.13
2022-09-18T09:49:27.430Z,98982.44
2022-09-18T09:52:00.455Z,98967.19
2022-09-18T09:54:27.376Z,98965.59
2022-09-18T09:57:28.846Z,98975.72
2022-09-18T10:00:07.421Z,98976.66
2022-09-18T10:03:00.719Z,98976.84
2022-09-18T10:06:12.075Z,98974.97
2022-09-18T10:08:47.760Z,98973.09
2022-09-18T10:11:16.479Z,98971.56
2022-09-18T10:13:48.869Z,98960.97
2022-09-18T10:16:21.477Z,98969.16
2022-09-18T10:18:49.865Z,98970.84
2022-09-18T10:21:20.344Z,98965.03
2022-09-18T10:23:57.945Z,98966.25
2022-09-18T10:26:31.936Z,98975.41
2022-09-18T10:28:59.733Z,98972.09
2022-09-18T10:31:53.491Z,98981.13
2022-09-18T10:34:34.163Z,98988.13
2022-09-18T10:37:01.963Z,98982.09
2022-09-18T10:39:31.561Z,98972.63
2022-09-18T10:42:05.935Z,98985.84
2022-09-18T10:44:38.326Z,98985.22
2022-09-18T10:47:21.558Z,98982.88
2022-09-18T10:50:11.790Z,98979.28
2022-09-18T10:52:47.673Z,98961.84
2022-09-18T10:55:28.007Z,98978.09
2022-09-18T10:58:14.258Z,98962.56
2022-09-18T11:00:59.321Z,98960.84
2022-09-18T11:04:01.058Z,98949.25
2022-09-18T11:06:32.615Z,98959.19
2022-09-18T11:09:11.011Z,98962.41
2022-09-18T11:11:47.480Z,98958.16
2022-09-18T11:14:26.166Z,98959.31
2022-09-18T11:17:01.336Z,98954.28
2022-09-18T11:19:37.193Z,98936.25
2022-09-18T11:22:39.025Z,98953.00
2022-09-18T11:25:22.249Z,98951.84
2022-09-18T11:27:59.909Z,98941.78
2022-09-18T11:30:36.105Z,98934.50
2022-09-18T11:33:36.870Z,98929.78
2022-09-18T11:36:09.185Z,98929.34
2022-09-18T11:38:46.332Z,98946.53
2022-09-18T11:41:21.162Z,98947.41
2022-09-18T11:44:03.870Z,98950.19
2022-09-18T11:46:53.485Z,98941.72
2022-09-18T11:49:28.483Z,98922.09
2022-09-18T11:52:15.073Z,98922.94
2022-09-18T11:54:51.690Z,98912.25
2022-09-18T11:57:27.109Z,98912.84
2022-09-18T12:00:02.912Z,98911.91
2022-09-18T12:02:41.371Z,98913.56
2022-09-18T12:05:29.035Z,98924.47
2022-09-18T12:08:04.678Z,98922.06
2022-09-18T12:10:56.751Z,98919.53
2022-09-18T12:13:38.597Z,98921.16
2022-09-18T12:16:30.799Z,98932.59
2022-09-18T12:19:16.995Z,98915.28
2022-09-18T12:21:57.609Z,98942.94
2022-09-18T12:24:24.742Z,98928.25
2022-09-18T12:27:09.010Z,98922.19
2022-09-18T12:29:45.127Z,98925.59
2022-09-18T12:32:20.667Z,98934.28
2022-09-18T12:35:15.835Z,98915.03
2022-09-18T12:38:01.032Z,98922.06
2022-09-18T12:40:43.752Z,98919.41
2022-09-18T12:43:26.308Z,98924.38
2022-09-18T12:45:54.762Z,98933.88
2022-09-18T12:48:45.466Z,98918.66
2022-09-18T12:51:46.854Z,98926.19
2022-09-18T12:54:31.869Z,98931.38
2022-09-18T12:57:16.039Z,98926.94
2022-09-18T13:00:14.652Z,98932.19
2022-09-18T13:02:51.634Z,98905.56
2022-09-18T13:05:27.698Z,98902.47
2022-09-18T13:08:07.272Z,98908.22
2022-09-18T13:10:45.976Z,98912.38
2022-09-18T13:13:34.870Z,98914.97
2022-09-18T13:16:20.439Z,98916.84
2022-09-18T13:18:53.018Z,98900.03
2022-09-18T13:21:36.506Z,98898.59
2022-09-18T13:24:06.138Z,98914.88
2022-09-18T13:26:37.494Z,98904.97
2022-09-18T13:29:25.561Z,98934.69
2022-09-18T13:31:55.482Z,98967.78
2022-09-18T13:34:22.423Z,98939.09
2022-09-18T13:36:49.249Z,98972.81
2022-09-18T13:39:22.668Z,98936.03
2022-09-18T13:41:53.095Z,98950.69
2022-09-18T13:44:21.653Z,98951.25
2022-09-18T13:46:50.584Z,98936.03
2022-09-18T13:49:27.481Z,98940.69
2022-09-18T13:51:54.920Z,98935.84
2022-09-18T13:54:27.299Z,98915.88
2022-09-18T13:57:03.315Z,98916.84
2022-09-18T13:59:51.779Z,98932.38
2022-09-18T14:02:26.849Z,98923.47
2022-09-18T14:05:01.099Z,98924.13
2022-09-18T14:07:27.861Z,98919.47
2022-09-18T14:10:04.575Z,98934.38
2022-09-18T14:12:35.796Z,98919.81
2022-09-18T14:15:05.190Z,98914.00
2022-09-18T14:17:33.880Z,98914.28
2022-09-18T14:20:26.453Z,98909.34
2022-09-18T14:22:53.299Z,98910.41
2022-09-18T14:25:46.649Z,98912.16
2022-09-18T14:28:13.345Z,98905.78
2022-09-18T14:30:40.156Z,98907.47
2022-09-18T14:33:20.823Z,98920.94
2022-09-18T14:36:05.124Z,98910.16
2022-09-18T14:38:31.813Z,98910.38
2022-09-18T14:41:07.428Z,98899.66
2022-09-18T14:43:34.972Z,98910.03
2022-09-18T14:46:02.756Z,98906.63
2022-09-18T14:48:35.222Z,98904.94
2022-09-18T14:51:16.975Z,98897.59
2022-09-18T14:53:48.764Z,98899.59
2022-09-18T14:56:21.057Z,98905.78
2022-09-18T14:58:48.024Z,98920.53
2022-09-18T15:01:25.510Z,98933.94
2022-09-18T15:03:54.497Z,98911.00
2022-09-18T15:06:28.356Z,98909.66
2022-09-18T15:08:56.989Z,98919.94
2022-09-18T15:11:32.071Z,98924.78
2022-09-18T15:14:27.072Z,98925.59
2022-09-18T15:17:01.792Z,98928.44
2022-09-18T15:19:30.307Z,98919.63
2022-09-18T15:21:58.737Z,98925.25
2022-09-18T15:24:26.752Z,98931.50
2022-09-18T15:26:58.935Z,98926.66
2022-09-18T15:29:57.932Z,98927.94
2022-09-18T15:32:35.270Z,98927.94
2022-09-18T15:35:06.340Z,98931.88
2022-09-18T15:37:33.171Z,98937.59
2022-09-18T15:40:07.514Z,98941.94
2022-09-18T15:42:50.892Z,98939.66
2022-09-18T15:45:21.514Z,98939.66
2022-09-18T15:47:49.028Z,98940.91
2022-09-18T15:50:15.728Z,98951.47
2022-09-18T15:53:06.958Z,98953.97
2022-09-18T15:55:53.355Z,98932.38
2022-09-18T15:58:41.471Z,98942.00
2022-09-18T16:01:19.369Z,98946.38
2022-09-18T16:03:47.111Z,98954.91
2022-09-18T16:06:25.848Z,98956.31
2022-09-18T16:08:55.248Z,98956.50
2022-09-18T16:11:42.691Z,98944.38
2022-09-18T16:14:37.562Z,98949.66
2022-09-18T16:17:29.259Z,98952.16
2022-09-18T16:20:02.075Z,98947.34
2022-09-18T16:22:30.609Z,98957.44
2022-09-18T16:24:58.351Z,98954.66
2022-09-18T16:27:26.469Z,98955.75
2022-09-18T16:29:53.291Z,98953.88
2022-09-18T16:32:20.129Z,98950.47
2022-09-18T16:34:46.817Z,98950.78
2022-09-18T16:37:14.681Z,98955.09
2022-09-18T16:39:41.471Z,98946.28
2022-09-18T16:42:17.306Z,98956.38
2022-09-18T16:44:45.172Z,98942.41
2022-09-18T16:47:15.513Z,98942.56
2022-09-18T16:49:45.772Z,98950.31
2022-09-18T16:52:13.333Z,98952.03
2022-09-18T16:54:40.065Z,98951.41
2022-09-18T16:57:15.114Z,98958.53
2022-09-18T16:59:43.285Z,98958.88
2022-09-18T17:02:13.406Z,98968.94
2022-09-18T17:04:40.206Z,98962.91
2022-09-18T17:07:07.308Z,98957.47
2022-09-18T17:09:34.357Z,98969.41
2022-09-18T17:12:01.615Z,98959.19
2022-09-18T17:14:28.812Z,98963.69
2022-09-18T17:16:56.770Z,98965.22
2022-09-18T17:19:25.151Z,98962.91
2022-09-18T17:21:52.270Z,98971.28
2022-09-18T17:24:20.656Z,98972.66
2022-09-18T17:26:48.077Z,98975.31
2022-09-18T17:29:15.299Z,98975.31
2022-09-18T17:31:43.809Z,98977.16
2022-09-18T17:34:11.644Z,98987.41
2022-09-18T17:36:39.917Z,98980.56
2022-09-18T17:39:07.817Z,98982.00
2022-09-18T17:41:35.596Z,98989.00
2022-09-18T17:44:03.218Z,98991.28
2022-09-18T17:46:30.544Z,98984.63
2022-09-18T17:48:59.874Z,98982.75
2022-09-18T17:51:29.142Z,98983.22
2022-09-18T17:53:59.022Z,98984.19
2022-09-18T17:56:26.504Z,98980.44
2022-09-18T17:58:53.813Z,98987.25
2022-09-18T18:01:21.016Z,98972.84
2022-09-18T18:03:48.391Z,98979.34
2022-09-18T18:06:21.529Z,98985.88
2022-09-18T18:08:50.280Z,98981.53
2022-09-18T18:11:20.075Z,98971.94
2022-09-18T18:13:46.884Z,98970.81
2022-09-18T18:16:22.263Z,98963.41
2022-09-18T18:18:54.901Z,98966.31
2022-09-18T18:21:22.576Z,98959.19
2022-09-18T18:23:55.258Z,98964.94
2022-09-18T18:26:22.127Z,98949.88
2022-09-18T18:28:49.063Z,98961.97
2022-09-18T18:31:16.404Z,98959.34
2022-09-18T18:33:45.277Z,98963.06
2022-09-18T18:36:14.938Z,98959.34
2022-09-18T18:38:45.131Z,98960.91
2022-09-18T18:41:13.965Z,98964.75
2022-09-18T18:43:41.484Z,98970.81
2022-09-18T18:46:10.712Z,98956.38
2022-09-18T18:48:37.788Z,98947.41
2022-09-18T18:51:16.355Z,98957.94
2022-09-18T18:53:45.494Z,98957.94
2022-09-18T18:56:17.019Z,98952.03
2022-09-18T18:58:44.530Z,98956.22
2022-09-18T19:01:14.806Z,98961.94
2022-09-18T19:03:44.512Z,98963.81
2022-09-18T19:06:12.237Z,98964.91
2022-09-18T19:08:39.163Z,98957.13
2022-09-18T19:11:06.780Z,98957.59
2022-09-18T19:13:34.665Z,98962.22
2022-09-18T19:16:03.239Z,98964.25
2022-09-18T19:18:30.406Z,98965.19
2022-09-18T19:20:59.066Z,98959.16
2022-09-18T19:23:26.317Z,98955.88
2022-09-18T19:25:56.835Z,98953.69
2022-09-18T19:28:24.341Z,98951.38
2022-09-18T19:30:51.166Z,98946.13
2022-09-18T19:33:18.592Z,98951.38
2022-09-18T19:35:45.462Z,98953.44
2022-09-18T19:38:12.840Z,98946.72
2022-09-18T19:40:40.053Z,98943.78
2022-09-18T19:43:13.231Z,98949.22
2022-09-18T19:45:42.309Z,98946.44
2022-09-18T19:48:20.059Z,98938.03
2022-09-18T19:50:47.000Z,98951.72
2022-09-18T19:53:13.638Z,98944.84
2022-09-18T19:55:40.772Z,98945.81
2022-09-18T19:58:09.157Z,98950.75
2022-09-18T20:00:40.664Z,98943.47
2022-09-18T20:03:08.078Z,98947.06
2022-09-18T20:05:39.784Z,98956.06
2022-09-18T20:08:07.835Z,98948.44
2022-09-18T20:10:37.465Z,98949.22
2022-09-18T20:13:04.899Z,98945.00
2022-09-18T20:15:31.715Z,98942.69
2022-09-18T20:17:58.502Z,98944.84
2022-09-18T20:20:26.741Z,98936.78
2022-09-18T20:22:55.248Z,98929.97
2022-09-18T20:25:22.481Z,98929.84
2022-09-18T20:27:49.347Z,98936.94
2022-09-18T20:30:16.170Z,98945.16
2022-09-18T20:32:42.976Z,98945.47
2022-09-18T20:35:10.182Z,98944.53
2022-09-18T20:37:37.004Z,98944.53
2022-09-18T20:40:06.357Z,98939.25
2022-09-18T20:42:33.546Z,98929.16
2022-09-18T20:45:01.692Z,98940.63
2022-09-18T20:47:32.254Z,98924.16
2022-09-18T20:49:58.956Z,98940.94
2022-09-18T20:52:25.696Z,98907.44
2022-09-18T20:54:53.145Z,98927.28
2022-09-18T20:57:19.986Z,98930.41
2022-09-18T20:59:46.766Z,98914.44
2022-09-18T21:02:13.618Z,98910.09
2022-09-18T21:04:43.326Z,98917.09
2022-09-18T21:07:12.158Z,98915.84
2022-09-18T21:09:39.057Z,98910.25
2022-09-18T21:12:05.969Z,98904.56
2022-09-18T21:14:32.759Z,98906.28
2022-09-18T21:16:59.494Z,98906.41
2022-09-18T21:19:26.439Z,98894.78
2022-09-18T21:21:54.083Z,98905.78
2022-09-18T21:24:20.823Z,98892.47
2022-09-18T21:26:49.421Z,98887.50
2022-09-18T21:29:19.174Z,98893.72
2022-09-18T21:31:49.889Z,98887.66
2022-09-18T21:34:24.767Z,98896.50
2022-09-18T21:36:57.100Z,98886.09
2022-09-18T21:39:25.088Z,98882.06
2022-09-18T21:41:51.894Z,98874.16
2022-09-18T21:44:21.540Z,98896.66
2022-09-18T21:46:48.240Z,98883.16
2022-09-18T21:49:15.120Z,98884.91
2022-09-18T21:51:42.470Z,98897.31
2022-09-18T21:54:13.750Z,98876.34
2022-09-18T21:56:41.189Z,98877.56
2022-09-18T21:59:09.960Z,98876.78
2022-09-18T22:01:37.602Z,98875.25
2022-09-18T22:04:06.012Z,98877.44
2022-09-18T22:06:41.214Z,98892.94
2022-09-18T22:09:11.011Z,98887.53
2022-09-18T22:11:38.439Z,98884.75
2022-09-18T22:14:17.812Z,98895.91
2022-09-18T22:16:45.412Z,98885.38
2022-09-18T22:19:13.201Z,98888.47
2022-09-18T22:21:42.503Z,98881.50
2022-09-18T22:24:12.903Z,98882.28
2022-09-18T22:26:42.435Z,98888.63
2022-09-18T22:29:21.260Z,98876.22
2022-09-18T22:31:48.575Z,98877.00
2022-09-18T22:34:18.607Z,98867.41
2022-09-18T22:36:46.971Z,98866.00
2022-09-18T22:39:16.504Z,98868.66
2022-09-18T22:41:44.863Z,98862.13
2022-09-18T22:44:12.758Z,98862.28
2022-09-18T22:46:41.583Z,98860.44
2022-09-18T22:49:09.216Z,98861.06
2022-09-18T22:51:36.108Z,98858.44
2022-09-18T22:54:04.798Z,98859.06
2022-09-18T22:56:32.423Z,98862.50
2022-09-18T22:58:59.126Z,98852.59
2022-09-18T23:01:39.152Z,98855.22
2022-09-18T23:04:06.022Z,98838.22
2022-09-18T23:06:33.567Z,98831.56
2022-09-18T23:09:01.458Z,98826.44
2022-09-18T23:11:32.218Z,98830.00
2022-09-18T23:14:01.530Z,98831.88
2022-09-18T23:16:30.679Z,98819.66
2022-09-18T23:19:03.084Z,98822.44
2022-09-18T23:21:32.429Z,98823.53
2022-09-18T23:24:08.600Z,98834.38
2022-09-18T23:26:39.606Z,98845.22
2022-09-18T23:29:09.688Z,98842.00
2022-09-18T23:31:40.583Z,98829.25
2022-09-18T23:34:16.625Z,98834.09
2022-09-18T23:36:45.203Z,98829.13
2022-09-18T23:39:14.754Z,98832.66
2022-09-18T23:41:42.992Z,98834.84
2022-09-18T23:44:12.511Z,98828.50
2022-09-18T23:46:39.885Z,98825.09
2022-09-18T23:49:07.933Z,98812.53
2022-09-18T23:51:40.170Z,98819.69
2022-09-18T23:54:08.274Z,98815.03
2022-09-18T23:56:35.321Z,98824.03
2022-09-18T23:59:06.858Z,98816.75
